sensor_id;sensor_type;location;lat;lon;timestamp;temperature;humidity
69901;DHT22;57183;50.930;5.406;2023-07-31T00:02:06;17.10;99.90
69901;DHT22;57183;50.930;5.406;2023-07-31T00:04:31;17.10;99.90
69901;DHT22;57183;50.930;5.406;2023-07-31T00:06:57;17.10;99.90
69901;DHT22;57183;50.930;5.406;2023-07-31T00:09:22;17.10;99.90
69901;DHT22;57183;50.930;5.406;2023-07-31T00:11:48;17.10;99.90
69901;DHT22;57183;50.930;5.406;2023-07-31T00:14:14;17.10;99.90
69901;DHT22;57183;50.930;5.406;2023-07-31T00:16:39;17.10;99.90
69901;DHT22;57183;50.930;5.406;2023-07-31T00:19:05;17.00;99.90
69901;DHT22;57183;50.930;5.406;2023-07-31T00:21:31;17.00;99.90
69901;DHT22;57183;50.930;5.406;2023-07-31T00:23:56;17.10;99.90
69901;DHT22;57183;50.930;5.406;2023-07-31T00:26:22;17.10;99.90
69901;DHT22;57183;50.930;5.406;2023-07-31T00:28:47;17.20;99.90
69901;DHT22;57183;50.930;5.406;2023-07-31T00:31:13;17.10;99.90
69901;DHT22;57183;50.930;5.406;2023-07-31T00:33:39;17.10;99.90
69901;DHT22;57183;50.930;5.406;2023-07-31T00:36:04;17.00;99.90
69901;DHT22;57183;50.930;5.406;2023-07-31T00:38:30;17.10;99.90
69901;DHT22;57183;50.930;5.406;2023-07-31T00:40:56;17.00;99.90
69901;DHT22;57183;50.930;5.406;2023-07-31T00:43:21;17.10;99.90
69901;DHT22;57183;50.930;5.406;2023-07-31T00:45:48;17.10;99.90
69901;DHT22;57183;50.930;5.406;2023-07-31T00:48:13;17.10;99.90
69901;DHT22;57183;50.930;5.406;2023-07-31T00:50:39;17.10;99.90
69901;DHT22;57183;50.930;5.406;2023-07-31T00:53:05;17.20;99.90
69901;DHT22;57183;50.930;5.406;2023-07-31T00:55:31;17.20;99.90
69901;DHT22;57183;50.930;5.406;2023-07-31T00:57:56;17.30;99.90
69901;DHT22;57183;50.930;5.406;2023-07-31T01:00:22;17.30;99.90
69901;DHT22;57183;50.930;5.406;2023-07-31T01:02:49;17.30;99.90
69901;DHT22;57183;50.930;5.406;2023-07-31T01:05:15;17.30;99.90
69901;DHT22;57183;50.930;5.406;2023-07-31T01:07:52;17.40;99.90
69901;DHT22;57183;50.930;5.406;2023-07-31T01:10:23;17.50;99.90
69901;DHT22;57183;50.930;5.406;2023-07-31T01:12:51;17.40;99.90
69901;DHT22;57183;50.930;5.406;2023-07-31T01:15:17;17.50;99.90
69901;DHT22;57183;50.930;5.406;2023-07-31T01:17:43;17.50;99.90
69901;DHT22;57183;50.930;5.406;2023-07-31T01:20:20;17.50;99.90
69901;DHT22;57183;50.930;5.406;2023-07-31T01:23:22;17.60;99.90
69901;DHT22;57183;50.930;5.406;2023-07-31T01:28:25;17.60;99.90
69901;DHT22;57183;50.930;5.406;2023-07-31T01:30:55;17.70;99.90
69901;DHT22;57183;50.930;5.406;2023-07-31T01:33:24;17.70;99.90
69901;DHT22;57183;50.930;5.406;2023-07-31T01:35:50;17.60;99.90
69901;DHT22;57183;50.930;5.406;2023-07-31T01:38:21;17.60;99.90
69901;DHT22;57183;50.930;5.406;2023-07-31T01:40:51;17.70;99.90
69901;DHT22;57183;50.930;5.406;2023-07-31T01:43:17;17.70;99.90
69901;DHT22;57183;50.930;5.406;2023-07-31T01:45:43;17.70;99.90
69901;DHT22;57183;50.930;5.406;2023-07-31T01:48:09;17.60;99.90
69901;DHT22;57183;50.930;5.406;2023-07-31T01:50:34;17.70;99.90
69901;DHT22;57183;50.930;5.406;2023-07-31T01:53:00;17.70;99.90
69901;DHT22;57183;50.930;5.406;2023-07-31T01:55:26;17.70;99.90
69901;DHT22;57183;50.930;5.406;2023-07-31T01:57:51;17.70;99.90
69901;DHT22;57183;50.930;5.406;2023-07-31T02:00:18;17.70;99.90
69901;DHT22;57183;50.930;5.406;2023-07-31T02:02:43;17.70;99.90
69901;DHT22;57183;50.930;5.406;2023-07-31T02:05:09;17.70;99.90
69901;DHT22;57183;50.930;5.406;2023-07-31T02:07:35;17.70;99.90
69901;DHT22;57183;50.930;5.406;2023-07-31T02:10:00;17.70;99.90
69901;DHT22;57183;50.930;5.406;2023-07-31T02:12:26;17.70;99.90
69901;DHT22;57183;50.930;5.406;2023-07-31T02:14:52;17.70;99.90
69901;DHT22;57183;50.930;5.406;2023-07-31T02:17:17;17.70;99.90
69901;DHT22;57183;50.930;5.406;2023-07-31T02:19:43;17.80;99.90
69901;DHT22;57183;50.930;5.406;2023-07-31T02:22:08;17.70;99.90
69901;DHT22;57183;50.930;5.406;2023-07-31T02:24:34;17.80;99.90
69901;DHT22;57183;50.930;5.406;2023-07-31T02:27:00;17.80;99.90
69901;DHT22;57183;50.930;5.406;2023-07-31T02:29:25;17.80;99.90
69901;DHT22;57183;50.930;5.406;2023-07-31T02:31:51;17.80;99.90
69901;DHT22;57183;50.930;5.406;2023-07-31T02:34:17;17.80;99.90
69901;DHT22;57183;50.930;5.406;2023-07-31T02:36:42;17.80;99.90
69901;DHT22;57183;50.930;5.406;2023-07-31T02:39:08;17.80;99.90
69901;DHT22;57183;50.930;5.406;2023-07-31T02:41:34;17.80;99.90
69901;DHT22;57183;50.930;5.406;2023-07-31T02:43:59;17.70;99.90
69901;DHT22;57183;50.930;5.406;2023-07-31T02:46:25;17.70;99.90
69901;DHT22;57183;50.930;5.406;2023-07-31T02:48:51;17.80;99.90
69901;DHT22;57183;50.930;5.406;2023-07-31T02:51:17;17.80;99.90
69901;DHT22;57183;50.930;5.406;2023-07-31T02:53:42;17.80;99.90
69901;DHT22;57183;50.930;5.406;2023-07-31T02:56:08;17.80;99.90
69901;DHT22;57183;50.930;5.406;2023-07-31T02:58:34;17.80;99.90
69901;DHT22;57183;50.930;5.406;2023-07-31T03:01:00;17.80;99.90
69901;DHT22;57183;50.930;5.406;2023-07-31T03:03:25;17.80;99.90
69901;DHT22;57183;50.930;5.406;2023-07-31T03:05:51;17.80;99.90
69901;DHT22;57183;50.930;5.406;2023-07-31T03:08:16;17.80;99.90
69901;DHT22;57183;50.930;5.406;2023-07-31T03:10:42;17.80;99.90
69901;DHT22;57183;50.930;5.406;2023-07-31T03:13:08;17.80;99.90
69901;DHT22;57183;50.930;5.406;2023-07-31T03:15:33;17.90;99.90
69901;DHT22;57183;50.930;5.406;2023-07-31T03:17:59;17.90;99.90
69901;DHT22;57183;50.930;5.406;2023-07-31T03:20:24;17.90;99.90
69901;DHT22;57183;50.930;5.406;2023-07-31T03:22:50;17.90;99.90
69901;DHT22;57183;50.930;5.406;2023-07-31T03:25:16;17.90;99.90
69901;DHT22;57183;50.930;5.406;2023-07-31T03:27:41;17.90;99.90
69901;DHT22;57183;50.930;5.406;2023-07-31T03:30:07;17.90;99.90
69901;DHT22;57183;50.930;5.406;2023-07-31T03:32:33;17.80;99.90
69901;DHT22;57183;50.930;5.406;2023-07-31T03:34:59;17.80;99.90
69901;DHT22;57183;50.930;5.406;2023-07-31T03:37:24;17.90;99.90
69901;DHT22;57183;50.930;5.406;2023-07-31T03:39:50;17.90;99.90
69901;DHT22;57183;50.930;5.406;2023-07-31T03:42:15;17.90;99.90
69901;DHT22;57183;50.930;5.406;2023-07-31T03:44:41;18.00;99.90
69901;DHT22;57183;50.930;5.406;2023-07-31T03:47:07;18.00;99.90
69901;DHT22;57183;50.930;5.406;2023-07-31T03:49:32;18.10;99.90
69901;DHT22;57183;50.930;5.406;2023-07-31T03:51:58;18.00;99.90
69901;DHT22;57183;50.930;5.406;2023-07-31T03:54:24;18.00;99.90
69901;DHT22;57183;50.930;5.406;2023-07-31T03:56:49;18.00;99.90
69901;DHT22;57183;50.930;5.406;2023-07-31T03:59:15;18.00;99.90
69901;DHT22;57183;50.930;5.406;2023-07-31T04:01:41;18.00;99.90
69901;DHT22;57183;50.930;5.406;2023-07-31T04:04:06;18.00;99.90
69901;DHT22;57183;50.930;5.406;2023-07-31T04:06:32;17.90;99.90
69901;DHT22;57183;50.930;5.406;2023-07-31T04:08:58;18.00;99.90
69901;DHT22;57183;50.930;5.406;2023-07-31T04:11:23;18.10;99.90
69901;DHT22;57183;50.930;5.406;2023-07-31T04:13:49;18.10;99.90
69901;DHT22;57183;50.930;5.406;2023-07-31T04:16:15;18.10;99.90
69901;DHT22;57183;50.930;5.406;2023-07-31T04:18:40;18.10;99.90
69901;DHT22;57183;50.930;5.406;2023-07-31T04:21:06;18.10;99.90
69901;DHT22;57183;50.930;5.406;2023-07-31T04:23:32;18.10;99.90
69901;DHT22;57183;50.930;5.406;2023-07-31T04:25:57;18.10;99.90
69901;DHT22;57183;50.930;5.406;2023-07-31T04:28:23;18.10;99.90
69901;DHT22;57183;50.930;5.406;2023-07-31T04:30:48;18.00;99.90
69901;DHT22;57183;50.930;5.406;2023-07-31T04:33:14;18.00;99.90
69901;DHT22;57183;50.930;5.406;2023-07-31T04:35:40;18.00;99.90
69901;DHT22;57183;50.930;5.406;2023-07-31T04:38:05;18.00;99.90
69901;DHT22;57183;50.930;5.406;2023-07-31T04:40:31;18.00;99.90
69901;DHT22;57183;50.930;5.406;2023-07-31T04:42:57;18.00;99.90
69901;DHT22;57183;50.930;5.406;2023-07-31T04:45:22;18.00;99.90
69901;DHT22;57183;50.930;5.406;2023-07-31T04:47:48;17.90;99.90
69901;DHT22;57183;50.930;5.406;2023-07-31T04:50:13;17.90;99.90
69901;DHT22;57183;50.930;5.406;2023-07-31T04:52:39;17.80;99.90
69901;DHT22;57183;50.930;5.406;2023-07-31T04:55:05;17.60;99.90
69901;DHT22;57183;50.930;5.406;2023-07-31T04:57:30;17.60;99.90
69901;DHT22;57183;50.930;5.406;2023-07-31T04:59:56;17.50;99.90
69901;DHT22;57183;50.930;5.406;2023-07-31T05:02:22;17.40;99.90
69901;DHT22;57183;50.930;5.406;2023-07-31T05:04:47;17.30;99.90
69901;DHT22;57183;50.930;5.406;2023-07-31T05:07:13;17.30;99.90
69901;DHT22;57183;50.930;5.406;2023-07-31T05:09:39;17.30;99.90
69901;DHT22;57183;50.930;5.406;2023-07-31T05:12:05;17.20;99.90
69901;DHT22;57183;50.930;5.406;2023-07-31T05:14:31;17.20;99.90
69901;DHT22;57183;50.930;5.406;2023-07-31T05:16:56;17.20;99.90
69901;DHT22;57183;50.930;5.406;2023-07-31T05:19:22;17.20;99.90
69901;DHT22;57183;50.930;5.406;2023-07-31T05:21:48;17.20;99.90
69901;DHT22;57183;50.930;5.406;2023-07-31T05:24:13;17.30;99.90
69901;DHT22;57183;50.930;5.406;2023-07-31T05:26:39;17.30;99.90
69901;DHT22;57183;50.930;5.406;2023-07-31T05:29:05;17.30;99.90
69901;DHT22;57183;50.930;5.406;2023-07-31T05:31:30;17.30;99.90
69901;DHT22;57183;50.930;5.406;2023-07-31T05:33:57;17.20;99.90
69901;DHT22;57183;50.930;5.406;2023-07-31T05:36:23;17.20;99.90
69901;DHT22;57183;50.930;5.406;2023-07-31T05:38:49;17.10;99.90
69901;DHT22;57183;50.930;5.406;2023-07-31T05:41:14;17.20;99.90
69901;DHT22;57183;50.930;5.406;2023-07-31T05:43:40;17.20;99.90
69901;DHT22;57183;50.930;5.406;2023-07-31T05:46:06;17.30;99.90
69901;DHT22;57183;50.930;5.406;2023-07-31T05:48:32;17.40;99.90
69901;DHT22;57183;50.930;5.406;2023-07-31T05:50:59;17.40;99.90
69901;DHT22;57183;50.930;5.406;2023-07-31T05:53:25;17.40;99.90
69901;DHT22;57183;50.930;5.406;2023-07-31T05:55:51;17.40;99.90
69901;DHT22;57183;50.930;5.406;2023-07-31T05:58:17;17.30;99.90
69901;DHT22;57183;50.930;5.406;2023-07-31T06:00:42;17.20;99.90
69901;DHT22;57183;50.930;5.406;2023-07-31T06:03:08;17.20;99.90
69901;DHT22;57183;50.930;5.406;2023-07-31T06:05:33;17.20;99.90
69901;DHT22;57183;50.930;5.406;2023-07-31T06:07:59;17.30;99.90
69901;DHT22;57183;50.930;5.406;2023-07-31T06:10:25;17.30;99.90
69901;DHT22;57183;50.930;5.406;2023-07-31T06:12:51;17.30;99.90
69901;DHT22;57183;50.930;5.406;2023-07-31T06:15:16;17.20;99.90
69901;DHT22;57183;50.930;5.406;2023-07-31T06:17:44;17.20;99.90
69901;DHT22;57183;50.930;5.406;2023-07-31T06:20:10;17.00;99.90
69901;DHT22;57183;50.930;5.406;2023-07-31T06:22:36;17.00;99.90
69901;DHT22;57183;50.930;5.406;2023-07-31T06:25:02;16.90;99.90
69901;DHT22;57183;50.930;5.406;2023-07-31T06:27:27;16.80;99.90
69901;DHT22;57183;50.930;5.406;2023-07-31T06:29:53;16.80;99.90
69901;DHT22;57183;50.930;5.406;2023-07-31T06:32:19;16.80;99.90
69901;DHT22;57183;50.930;5.406;2023-07-31T06:34:44;16.80;99.90
69901;DHT22;57183;50.930;5.406;2023-07-31T06:37:10;16.70;99.90
69901;DHT22;57183;50.930;5.406;2023-07-31T06:39:36;16.70;99.90
69901;DHT22;57183;50.930;5.406;2023-07-31T06:42:03;16.70;99.90
69901;DHT22;57183;50.930;5.406;2023-07-31T06:44:28;16.80;99.90
69901;DHT22;57183;50.930;5.406;2023-07-31T06:46:54;16.90;99.90
69901;DHT22;57183;50.930;5.406;2023-07-31T06:49:19;16.90;99.90
69901;DHT22;57183;50.930;5.406;2023-07-31T06:51:45;17.00;99.90
69901;DHT22;57183;50.930;5.406;2023-07-31T06:54:11;16.90;99.90
69901;DHT22;57183;50.930;5.406;2023-07-31T06:56:36;16.90;99.90
69901;DHT22;57183;50.930;5.406;2023-07-31T06:59:03;17.00;99.90
69901;DHT22;57183;50.930;5.406;2023-07-31T07:01:29;17.00;99.90
69901;DHT22;57183;50.930;5.406;2023-07-31T07:03:54;17.00;99.90
69901;DHT22;57183;50.930;5.406;2023-07-31T07:06:21;17.00;99.90
69901;DHT22;57183;50.930;5.406;2023-07-31T07:08:48;17.00;99.90
69901;DHT22;57183;50.930;5.406;2023-07-31T07:11:13;17.00;99.90
69901;DHT22;57183;50.930;5.406;2023-07-31T07:13:39;17.00;99.90
69901;DHT22;57183;50.930;5.406;2023-07-31T07:16:05;17.00;99.90
69901;DHT22;57183;50.930;5.406;2023-07-31T07:18:30;17.00;99.90
69901;DHT22;57183;50.930;5.406;2023-07-31T07:20:56;17.10;99.90
69901;DHT22;57183;50.930;5.406;2023-07-31T07:23:23;17.30;99.90
69901;DHT22;57183;50.930;5.406;2023-07-31T07:25:49;17.40;99.90
69901;DHT22;57183;50.930;5.406;2023-07-31T07:28:15;17.50;99.90
69901;DHT22;57183;50.930;5.406;2023-07-31T07:30:41;17.60;99.90
69901;DHT22;57183;50.930;5.406;2023-07-31T07:33:06;17.60;99.90
69901;DHT22;57183;50.930;5.406;2023-07-31T07:35:36;17.70;99.90
69901;DHT22;57183;50.930;5.406;2023-07-31T07:38:04;17.80;99.90
69901;DHT22;57183;50.930;5.406;2023-07-31T07:40:30;17.90;99.90
69901;DHT22;57183;50.930;5.406;2023-07-31T07:42:56;17.80;99.90
69901;DHT22;57183;50.930;5.406;2023-07-31T07:45:21;17.80;99.90
69901;DHT22;57183;50.930;5.406;2023-07-31T07:47:47;17.70;99.90
69901;DHT22;57183;50.930;5.406;2023-07-31T07:50:13;17.50;99.90
69901;DHT22;57183;50.930;5.406;2023-07-31T07:52:38;17.40;99.90
69901;DHT22;57183;50.930;5.406;2023-07-31T07:55:04;17.30;99.90
69901;DHT22;57183;50.930;5.406;2023-07-31T07:57:30;17.30;99.90
69901;DHT22;57183;50.930;5.406;2023-07-31T07:59:55;17.20;99.90
69901;DHT22;57183;50.930;5.406;2023-07-31T08:02:22;17.20;99.90
69901;DHT22;57183;50.930;5.406;2023-07-31T08:04:47;17.20;99.90
69901;DHT22;57183;50.930;5.406;2023-07-31T08:07:13;17.20;99.90
69901;DHT22;57183;50.930;5.406;2023-07-31T08:09:40;17.30;99.90
69901;DHT22;57183;50.930;5.406;2023-07-31T08:12:06;17.40;99.90
69901;DHT22;57183;50.930;5.406;2023-07-31T08:14:32;17.50;99.90
69901;DHT22;57183;50.930;5.406;2023-07-31T08:16:57;17.50;99.90
69901;DHT22;57183;50.930;5.406;2023-07-31T08:19:23;17.50;99.90
69901;DHT22;57183;50.930;5.406;2023-07-31T08:21:49;17.40;99.90
69901;DHT22;57183;50.930;5.406;2023-07-31T08:24:14;17.30;99.90
69901;DHT22;57183;50.930;5.406;2023-07-31T08:26:40;17.30;99.90
69901;DHT22;57183;50.930;5.406;2023-07-31T08:29:06;17.30;99.90
69901;DHT22;57183;50.930;5.406;2023-07-31T08:31:32;17.30;99.90
69901;DHT22;57183;50.930;5.406;2023-07-31T08:33:57;17.30;99.90
69901;DHT22;57183;50.930;5.406;2023-07-31T08:36:23;17.30;99.90
69901;DHT22;57183;50.930;5.406;2023-07-31T08:38:48;17.40;99.90
69901;DHT22;57183;50.930;5.406;2023-07-31T08:41:15;17.50;99.90
69901;DHT22;57183;50.930;5.406;2023-07-31T08:43:47;17.50;99.90
69901;DHT22;57183;50.930;5.406;2023-07-31T08:46:15;17.50;99.90
69901;DHT22;57183;50.930;5.406;2023-07-31T08:48:43;17.50;99.90
69901;DHT22;57183;50.930;5.406;2023-07-31T08:51:11;17.40;99.90
69901;DHT22;57183;50.930;5.406;2023-07-31T08:53:36;17.40;99.90
69901;DHT22;57183;50.930;5.406;2023-07-31T08:56:02;17.40;99.90
69901;DHT22;57183;50.930;5.406;2023-07-31T08:58:31;17.40;99.90
69901;DHT22;57183;50.930;5.406;2023-07-31T09:00:59;17.50;99.90
69901;DHT22;57183;50.930;5.406;2023-07-31T09:03:26;17.40;99.90
69901;DHT22;57183;50.930;5.406;2023-07-31T09:05:52;17.30;99.90
69901;DHT22;57183;50.930;5.406;2023-07-31T09:08:20;17.50;99.90
69901;DHT22;57183;50.930;5.406;2023-07-31T09:10:47;17.70;99.90
69901;DHT22;57183;50.930;5.406;2023-07-31T09:13:13;17.70;99.90
69901;DHT22;57183;50.930;5.406;2023-07-31T09:15:40;17.80;99.90
69901;DHT22;57183;50.930;5.406;2023-07-31T09:18:09;17.90;99.90
69901;DHT22;57183;50.930;5.406;2023-07-31T09:20:35;17.70;99.90
69901;DHT22;57183;50.930;5.406;2023-07-31T09:23:09;17.70;99.90
69901;DHT22;57183;50.930;5.406;2023-07-31T09:25:35;17.90;99.90
69901;DHT22;57183;50.930;5.406;2023-07-31T09:30:36;18.00;99.90
69901;DHT22;57183;50.930;5.406;2023-07-31T09:33:09;17.90;99.90
69901;DHT22;57183;50.930;5.406;2023-07-31T09:35:35;17.90;99.90
69901;DHT22;57183;50.930;5.406;2023-07-31T09:38:04;17.80;99.90
69901;DHT22;57183;50.930;5.406;2023-07-31T09:40:32;17.80;99.90
69901;DHT22;57183;50.930;5.406;2023-07-31T09:43:02;17.80;99.90
69901;DHT22;57183;50.930;5.406;2023-07-31T09:45:28;17.70;99.90
69901;DHT22;57183;50.930;5.406;2023-07-31T09:47:54;17.80;99.90
69901;DHT22;57183;50.930;5.406;2023-07-31T09:50:21;17.90;99.90
69901;DHT22;57183;50.930;5.406;2023-07-31T09:52:49;18.00;99.90
69901;DHT22;57183;50.930;5.406;2023-07-31T09:55:15;18.10;99.90
69901;DHT22;57183;50.930;5.406;2023-07-31T09:57:42;18.10;99.90
69901;DHT22;57183;50.930;5.406;2023-07-31T10:00:12;18.30;99.90
69901;DHT22;57183;50.930;5.406;2023-07-31T10:02:39;18.50;99.90
69901;DHT22;57183;50.930;5.406;2023-07-31T10:05:06;18.70;99.90
69901;DHT22;57183;50.930;5.406;2023-07-31T10:07:39;18.70;99.90
69901;DHT22;57183;50.930;5.406;2023-07-31T10:10:08;18.60;99.90
69901;DHT22;57183;50.930;5.406;2023-07-31T10:12:35;18.70;99.90
69901;DHT22;57183;50.930;5.406;2023-07-31T10:15:02;18.50;99.90
69901;DHT22;57183;50.930;5.406;2023-07-31T10:17:30;18.50;99.90
69901;DHT22;57183;50.930;5.406;2023-07-31T10:19:58;18.60;99.90
69901;DHT22;57183;50.930;5.406;2023-07-31T10:22:27;18.70;99.90
69901;DHT22;57183;50.930;5.406;2023-07-31T10:24:54;18.80;99.90
69901;DHT22;57183;50.930;5.406;2023-07-31T10:27:20;19.00;99.90
69901;DHT22;57183;50.930;5.406;2023-07-31T10:29:47;19.00;99.90
69901;DHT22;57183;50.930;5.406;2023-07-31T10:32:14;19.00;99.90
69901;DHT22;57183;50.930;5.406;2023-07-31T10:34:41;19.10;99.90
69901;DHT22;57183;50.930;5.406;2023-07-31T10:37:29;19.00;99.90
69901;DHT22;57183;50.930;5.406;2023-07-31T10:42:45;18.90;99.90
69901;DHT22;57183;50.930;5.406;2023-07-31T10:45:12;18.80;99.90
69901;DHT22;57183;50.930;5.406;2023-07-31T10:50:17;18.80;99.90
69901;DHT22;57183;50.930;5.406;2023-07-31T10:52:47;18.80;99.90
69901;DHT22;57183;50.930;5.406;2023-07-31T10:55:27;18.90;99.90
69901;DHT22;57183;50.930;5.406;2023-07-31T10:57:54;19.10;99.90
69901;DHT22;57183;50.930;5.406;2023-07-31T11:00:24;19.10;99.90
69901;DHT22;57183;50.930;5.406;2023-07-31T11:03:17;19.00;99.90
69901;DHT22;57183;50.930;5.406;2023-07-31T11:05:52;19.20;99.90
69901;DHT22;57183;50.930;5.406;2023-07-31T11:08:30;19.30;99.90
69901;DHT22;57183;50.930;5.406;2023-07-31T11:15:53;19.30;99.90
69901;DHT22;57183;50.930;5.406;2023-07-31T11:18:19;19.50;99.90
69901;DHT22;57183;50.930;5.406;2023-07-31T11:20:45;19.70;99.90
69901;DHT22;57183;50.930;5.406;2023-07-31T11:23:11;19.80;99.90
69901;DHT22;57183;50.930;5.406;2023-07-31T11:25:38;19.90;99.90
69901;DHT22;57183;50.930;5.406;2023-07-31T11:28:12;20.00;99.90
69901;DHT22;57183;50.930;5.406;2023-07-31T11:30:38;19.80;99.90
69901;DHT22;57183;50.930;5.406;2023-07-31T11:33:07;19.70;99.90
69901;DHT22;57183;50.930;5.406;2023-07-31T11:35:34;19.70;99.90
69901;DHT22;57183;50.930;5.406;2023-07-31T11:38:00;20.00;99.90
69901;DHT22;57183;50.930;5.406;2023-07-31T11:40:27;20.30;99.90
69901;DHT22;57183;50.930;5.406;2023-07-31T11:43:03;20.50;99.90
69901;DHT22;57183;50.930;5.406;2023-07-31T11:45:30;20.50;99.90
69901;DHT22;57183;50.930;5.406;2023-07-31T11:47:56;20.50;99.90
69901;DHT22;57183;50.930;5.406;2023-07-31T11:50:23;20.50;99.90
69901;DHT22;57183;50.930;5.406;2023-07-31T11:52:55;20.40;99.90
69901;DHT22;57183;50.930;5.406;2023-07-31T11:55:23;20.40;99.90
69901;DHT22;57183;50.930;5.406;2023-07-31T11:57:49;20.50;99.90
69901;DHT22;57183;50.930;5.406;2023-07-31T12:00:15;20.50;99.90
69901;DHT22;57183;50.930;5.406;2023-07-31T12:02:42;20.80;99.90
69901;DHT22;57183;50.930;5.406;2023-07-31T12:05:14;21.10;99.90
69901;DHT22;57183;50.930;5.406;2023-07-31T12:10:09;21.40;99.90
69901;DHT22;57183;50.930;5.406;2023-07-31T12:12:35;21.60;99.90
69901;DHT22;57183;50.930;5.406;2023-07-31T12:15:00;21.70;99.90
69901;DHT22;57183;50.930;5.406;2023-07-31T12:17:26;21.90;99.90
69901;DHT22;57183;50.930;5.406;2023-07-31T12:19:52;21.70;99.90
69901;DHT22;57183;50.930;5.406;2023-07-31T12:22:17;21.50;99.90
69901;DHT22;57183;50.930;5.406;2023-07-31T12:24:44;21.30;99.90
69901;DHT22;57183;50.930;5.406;2023-07-31T12:27:14;21.10;99.90
69901;DHT22;57183;50.930;5.406;2023-07-31T12:29:43;20.90;99.90
69901;DHT22;57183;50.930;5.406;2023-07-31T12:32:23;20.80;99.90
69901;DHT22;57183;50.930;5.406;2023-07-31T12:34:50;20.80;99.90
69901;DHT22;57183;50.930;5.406;2023-07-31T12:37:16;20.90;99.90
69901;DHT22;57183;50.930;5.406;2023-07-31T12:39:42;21.20;99.90
69901;DHT22;57183;50.930;5.406;2023-07-31T12:42:08;21.70;99.90
69901;DHT22;57183;50.930;5.406;2023-07-31T12:44:33;22.10;99.90
69901;DHT22;57183;50.930;5.406;2023-07-31T12:46:59;22.50;99.90
69901;DHT22;57183;50.930;5.406;2023-07-31T12:49:24;22.80;99.90
69901;DHT22;57183;50.930;5.406;2023-07-31T12:51:50;23.20;99.90
69901;DHT22;57183;50.930;5.406;2023-07-31T12:54:16;22.90;99.90
69901;DHT22;57183;50.930;5.406;2023-07-31T12:56:41;22.70;99.90
69901;DHT22;57183;50.930;5.406;2023-07-31T12:59:07;22.40;99.90
69901;DHT22;57183;50.930;5.406;2023-07-31T13:01:33;22.10;99.90
69901;DHT22;57183;50.930;5.406;2023-07-31T13:03:58;21.90;99.90
69901;DHT22;57183;50.930;5.406;2023-07-31T13:06:25;21.80;99.90
69901;DHT22;57183;50.930;5.406;2023-07-31T13:08:51;21.50;99.90
69901;DHT22;57183;50.930;5.406;2023-07-31T13:11:17;21.10;99.90
69901;DHT22;57183;50.930;5.406;2023-07-31T13:13:42;21.00;99.90
69901;DHT22;57183;50.930;5.406;2023-07-31T13:16:08;20.80;99.90
69901;DHT22;57183;50.930;5.406;2023-07-31T13:18:34;20.60;99.90
69901;DHT22;57183;50.930;5.406;2023-07-31T13:20:59;20.60;99.90
69901;DHT22;57183;50.930;5.406;2023-07-31T13:23:25;20.50;99.90
69901;DHT22;57183;50.930;5.406;2023-07-31T13:25:51;20.50;99.90
69901;DHT22;57183;50.930;5.406;2023-07-31T13:28:16;20.40;99.90
69901;DHT22;57183;50.930;5.406;2023-07-31T13:30:42;20.40;99.90
69901;DHT22;57183;50.930;5.406;2023-07-31T13:33:07;20.40;99.90
69901;DHT22;57183;50.930;5.406;2023-07-31T13:35:33;20.40;99.90
69901;DHT22;57183;50.930;5.406;2023-07-31T13:37:59;20.40;99.90
69901;DHT22;57183;50.930;5.406;2023-07-31T13:40:25;20.60;99.90
69901;DHT22;57183;50.930;5.406;2023-07-31T13:42:50;20.60;99.90
69901;DHT22;57183;50.930;5.406;2023-07-31T13:45:16;20.90;99.90
69901;DHT22;57183;50.930;5.406;2023-07-31T13:47:41;21.20;99.90
69901;DHT22;57183;50.930;5.406;2023-07-31T13:50:07;21.20;99.90
69901;DHT22;57183;50.930;5.406;2023-07-31T13:52:33;21.00;99.90
69901;DHT22;57183;50.930;5.406;2023-07-31T13:54:59;20.90;99.90
69901;DHT22;57183;50.930;5.406;2023-07-31T13:57:24;20.80;99.90
69901;DHT22;57183;50.930;5.406;2023-07-31T13:59:50;20.90;99.90
69901;DHT22;57183;50.930;5.406;2023-07-31T14:02:16;21.00;99.90
69901;DHT22;57183;50.930;5.406;2023-07-31T14:04:41;20.90;99.90
69901;DHT22;57183;50.930;5.406;2023-07-31T14:07:07;20.80;99.90
69901;DHT22;57183;50.930;5.406;2023-07-31T14:09:32;20.80;99.90
69901;DHT22;57183;50.930;5.406;2023-07-31T14:11:58;20.70;99.90
69901;DHT22;57183;50.930;5.406;2023-07-31T14:14:24;20.50;99.90
69901;DHT22;57183;50.930;5.406;2023-07-31T14:16:49;20.40;99.90
69901;DHT22;57183;50.930;5.406;2023-07-31T14:19:15;20.30;99.90
69901;DHT22;57183;50.930;5.406;2023-07-31T14:21:41;20.30;99.90
69901;DHT22;57183;50.930;5.406;2023-07-31T14:24:06;20.30;99.90
69901;DHT22;57183;50.930;5.406;2023-07-31T14:26:32;20.20;99.90
69901;DHT22;57183;50.930;5.406;2023-07-31T14:28:58;20.10;99.90
69901;DHT22;57183;50.930;5.406;2023-07-31T14:31:23;20.00;99.90
69901;DHT22;57183;50.930;5.406;2023-07-31T14:33:49;19.90;99.90
69901;DHT22;57183;50.930;5.406;2023-07-31T14:36:15;19.80;99.90
69901;DHT22;57183;50.930;5.406;2023-07-31T14:38:40;19.60;99.90
69901;DHT22;57183;50.930;5.406;2023-07-31T14:41:06;19.50;99.90
69901;DHT22;57183;50.930;5.406;2023-07-31T14:43:32;19.40;99.90
69901;DHT22;57183;50.930;5.406;2023-07-31T14:45:57;19.20;99.90
69901;DHT22;57183;50.930;5.406;2023-07-31T14:48:25;19.00;99.90
69901;DHT22;57183;50.930;5.406;2023-07-31T14:50:51;19.00;99.90
69901;DHT22;57183;50.930;5.406;2023-07-31T14:53:17;19.00;99.90
69901;DHT22;57183;50.930;5.406;2023-07-31T14:55:43;19.10;99.90
69901;DHT22;57183;50.930;5.406;2023-07-31T14:58:08;19.00;99.90
69901;DHT22;57183;50.930;5.406;2023-07-31T15:00:36;18.90;99.90
69901;DHT22;57183;50.930;5.406;2023-07-31T15:03:02;18.80;99.90
69901;DHT22;57183;50.930;5.406;2023-07-31T15:05:28;18.80;99.90
69901;DHT22;57183;50.930;5.406;2023-07-31T15:07:54;18.80;99.90
69901;DHT22;57183;50.930;5.406;2023-07-31T15:10:19;18.80;99.90
69901;DHT22;57183;50.930;5.406;2023-07-31T15:12:45;18.70;99.90
69901;DHT22;57183;50.930;5.406;2023-07-31T15:15:11;18.70;99.90
69901;DHT22;57183;50.930;5.406;2023-07-31T15:17:37;18.50;99.90
69901;DHT22;57183;50.930;5.406;2023-07-31T15:20:03;18.30;99.90
69901;DHT22;57183;50.930;5.406;2023-07-31T15:22:29;18.30;99.90
69901;DHT22;57183;50.930;5.406;2023-07-31T15:24:56;18.20;99.90
69901;DHT22;57183;50.930;5.406;2023-07-31T15:27:22;18.30;99.90
69901;DHT22;57183;50.930;5.406;2023-07-31T15:29:49;18.30;99.90
69901;DHT22;57183;50.930;5.406;2023-07-31T15:32:15;18.40;99.90
69901;DHT22;57183;50.930;5.406;2023-07-31T15:34:41;18.50;99.90
69901;DHT22;57183;50.930;5.406;2023-07-31T15:37:06;18.60;99.90
69901;DHT22;57183;50.930;5.406;2023-07-31T15:39:32;18.60;99.90
69901;DHT22;57183;50.930;5.406;2023-07-31T15:41:58;18.50;99.90
69901;DHT22;57183;50.930;5.406;2023-07-31T15:44:23;18.50;99.90